createdAt,value
2023-04-02T00:01:19.618Z,7.32
2023-04-02T00:04:16.533Z,7.30
2023-04-02T00:06:47.212Z,6.05
2023-04-02T00:09:31.615Z,8.32
2023-04-02T00:12:00.502Z,6.70
2023-04-02T00:14:31.295Z,8.48
2023-04-02T00:17:01.654Z,8.20
2023-04-02T00:19:36.536Z,6.68
2023-04-02T00:22:07.822Z,7.60
2023-04-02T00:24:35.793Z,5.85
2023-04-02T00:27:03.745Z,8.88
2023-04-02T00:29:31.189Z,10.05
2023-04-02T00:31:59.399Z,8.45
2023-04-02T00:34:31.975Z,10.00
2023-04-02T00:39:33.251Z,7.82
2023-04-02T00:42:06.995Z,8.35
2023-04-02T00:44:38.465Z,9.00
2023-04-02T00:47:15.089Z,5.85
2023-04-02T00:49:43.587Z,8.23
2023-04-02T00:52:14.643Z,8.50
2023-04-02T00:54:45.840Z,9.10
2023-04-02T00:57:18.050Z,7.00
2023-04-02T00:59:55.246Z,8.20
2023-04-02T01:02:32.233Z,8.90
2023-04-02T01:05:01.071Z,8.50
2023-04-02T01:08:02.456Z,3.17
2023-04-02T01:10:44.745Z,6.30
2023-04-02T01:13:23.432Z,8.98
2023-04-02T01:15:59.870Z,6.85
2023-04-02T01:18:37.929Z,7.65
2023-04-02T01:21:22.024Z,7.63
2023-04-02T01:24:04.444Z,8.57
2023-04-02T01:26:46.232Z,8.43
2023-04-02T01:29:16.949Z,9.55
2023-04-02T01:31:46.347Z,7.65
2023-04-02T01:34:16.812Z,7.45
2023-04-02T01:37:05.079Z,4.90
2023-04-02T01:39:45.143Z,8.98
2023-04-02T01:42:19.173Z,8.98
2023-04-02T01:44:50.837Z,8.88
2023-04-02T01:47:22.091Z,7.35
2023-04-02T01:49:49.558Z,7.50
2023-04-02T01:52:19.593Z,8.55
2023-04-02T01:54:47.925Z,9.50
2023-04-02T01:57:16.780Z,8.02
2023-04-02T01:59:44.803Z,8.52
2023-04-02T02:02:15.219Z,9.32
2023-04-02T02:04:44.567Z,5.05
2023-04-02T02:07:15.242Z,8.23
2023-04-02T02:09:46.000Z,7.07
2023-04-02T02:12:15.504Z,7.22
2023-04-02T02:14:47.005Z,7.85
2023-04-02T02:17:18.295Z,7.43
2023-04-02T02:19:49.044Z,8.52
2023-04-02T02:22:24.265Z,6.80
2023-04-02T02:24:52.142Z,8.57
2023-04-02T02:27:53.298Z,7.65
2023-04-02T02:30:27.191Z,5.32
2023-04-02T02:33:03.265Z,5.38
2023-04-02T02:35:37.454Z,7.32
2023-04-02T02:38:42.875Z,8.23
2023-04-02T02:41:21.815Z,6.60
2023-04-02T02:43:59.208Z,5.57
2023-04-02T02:46:29.491Z,6.05
2023-04-02T02:49:02.489Z,5.30
2023-04-02T02:51:38.763Z,7.00
2023-04-02T02:54:07.959Z,7.07
2023-04-02T02:56:42.082Z,7.90
2023-04-02T03:01:43.395Z,6.32
2023-04-02T03:04:12.519Z,6.68
2023-04-02T03:06:41.020Z,6.20
2023-04-02T03:09:18.713Z,7.47
2023-04-02T03:11:55.002Z,5.25
2023-04-02T03:14:32.786Z,2.88
2023-04-02T03:17:10.170Z,3.92
2023-04-02T03:19:45.893Z,4.18
2023-04-02T03:22:19.642Z,4.63
2023-04-02T03:24:57.601Z,6.70
2023-04-02T03:27:30.198Z,6.03
2023-04-02T03:30:22.073Z,4.60
2023-04-02T03:32:53.397Z,5.82
2023-04-02T03:35:29.039Z,6.05
2023-04-02T03:38:02.188Z,5.32
2023-04-02T03:40:34.607Z,5.40
2023-04-02T03:43:06.618Z,5.20
2023-04-02T03:45:39.377Z,3.78
2023-04-02T03:48:12.877Z,5.35
2023-04-02T03:50:47.964Z,5.07
2023-04-02T03:53:15.520Z,4.50
2023-04-02T03:55:43.910Z,4.43
2023-04-02T03:58:20.750Z,5.22
2023-04-02T04:00:53.360Z,5.40
2023-04-02T04:03:25.807Z,4.03
2023-04-02T04:05:59.634Z,2.53
2023-04-02T04:08:34.185Z,5.10
2023-04-02T04:11:07.849Z,2.92
2023-04-02T04:13:43.104Z,5.00
2023-04-02T04:16:15.174Z,5.95
2023-04-02T04:18:51.965Z,4.40
2023-04-02T04:21:30.290Z,4.85
2023-04-02T04:24:20.410Z,4.50
2023-04-02T04:26:55.857Z,2.90
2023-04-02T04:29:45.748Z,5.40
2023-04-02T04:32:27.620Z,5.53
2023-04-02T04:35:04.990Z,6.00
2023-04-02T04:37:38.617Z,5.15
2023-04-02T04:40:17.700Z,4.50
2023-04-02T04:42:48.689Z,4.20
2023-04-02T04:45:30.620Z,6.00
2023-04-02T04:48:01.759Z,6.30
2023-04-02T04:50:34.646Z,5.30
2023-04-02T04:53:08.443Z,4.43
2023-04-02T04:55:39.323Z,4.43
2023-04-02T04:58:18.322Z,5.40
2023-04-02T05:00:55.427Z,5.47
2023-04-02T05:03:31.383Z,4.90
2023-04-02T05:06:04.432Z,5.22
2023-04-02T05:08:39.139Z,3.47
2023-04-02T05:11:13.429Z,5.40
2023-04-02T05:13:45.192Z,6.03
2023-04-02T05:16:18.936Z,6.13
2023-04-02T05:18:52.632Z,5.57
2023-04-02T05:21:26.536Z,5.03
2023-04-02T05:24:02.896Z,6.35
2023-04-02T05:26:34.058Z,4.22
2023-04-02T05:29:18.627Z,6.32
2023-04-02T05:31:54.797Z,6.63
2023-04-02T05:34:27.060Z,5.20
2023-04-02T05:36:55.806Z,6.03
2023-04-02T05:39:27.214Z,6.30
2023-04-02T05:42:02.835Z,6.30
2023-04-02T05:44:55.693Z,5.75
2023-04-02T05:47:28.047Z,6.40
2023-04-02T05:50:18.307Z,6.20
2023-04-02T05:52:53.797Z,6.47
2023-04-02T05:55:35.073Z,5.50
2023-04-02T05:58:33.686Z,5.43
2023-04-02T06:01:07.850Z,6.47
2023-04-02T06:03:46.354Z,7.13
2023-04-02T06:06:23.139Z,5.05
2023-04-02T06:08:56.559Z,6.35
2023-04-02T06:11:28.654Z,6.78
2023-04-02T06:13:57.976Z,4.00
2023-04-02T06:16:27.565Z,5.95
2023-04-02T06:18:55.972Z,5.05
2023-04-02T06:21:23.816Z,5.50
2023-04-02T06:23:57.164Z,5.63
2023-04-02T06:26:32.761Z,5.85
2023-04-02T06:29:05.900Z,4.03
2023-04-02T06:31:39.118Z,5.57
2023-04-02T06:34:15.964Z,5.45
2023-04-02T06:36:50.428Z,5.40
2023-04-02T06:39:22.871Z,5.95
2023-04-02T06:41:59.935Z,7.03
2023-04-02T06:44:46.401Z,4.60
2023-04-02T06:47:22.790Z,6.60
2023-04-02T06:49:55.157Z,4.10
2023-04-02T06:52:26.307Z,5.78
2023-04-02T06:54:53.711Z,4.53
2023-04-02T06:57:23.151Z,5.40
2023-04-02T06:59:52.183Z,4.53
2023-04-02T07:02:28.681Z,6.25
2023-04-02T07:05:01.860Z,4.13
2023-04-02T07:07:30.595Z,6.28
2023-04-02T07:09:58.956Z,4.47
2023-04-02T07:12:27.849Z,6.30
2023-04-02T07:14:56.018Z,4.65
2023-04-02T07:17:24.295Z,4.47
2023-04-02T07:19:51.753Z,6.88
2023-04-02T07:22:22.276Z,5.05
2023-04-02T07:24:56.516Z,5.40
2023-04-02T07:27:23.878Z,2.25
2023-04-02T07:29:52.543Z,5.90
2023-04-02T07:32:20.035Z,6.63
2023-04-02T07:34:47.526Z,5.32
2023-04-02T07:37:15.217Z,5.47
2023-04-02T07:39:42.697Z,6.57
2023-04-02T07:42:10.423Z,5.03
2023-04-02T07:44:37.899Z,6.45
2023-04-02T07:47:07.538Z,5.63
2023-04-02T07:49:35.138Z,6.72
2023-04-02T07:52:02.408Z,5.10
2023-04-02T07:54:30.498Z,4.70
2023-04-02T07:56:57.778Z,6.65
2023-04-02T07:59:25.217Z,4.85
2023-04-02T08:01:53.182Z,6.20
2023-04-02T08:04:23.299Z,6.15
2023-04-02T08:06:50.672Z,6.20
2023-04-02T08:09:20.455Z,6.47
2023-04-02T08:11:48.124Z,4.30
2023-04-02T08:14:15.707Z,4.40
2023-04-02T08:16:48.159Z,5.60
2023-04-02T08:19:15.873Z,5.68
2023-04-02T08:21:45.104Z,6.43
2023-04-02T08:24:12.594Z,6.20
2023-04-02T08:26:39.985Z,5.57
2023-04-02T08:29:07.523Z,6.38
2023-04-02T08:31:34.898Z,5.53
2023-04-02T08:34:02.581Z,6.40
2023-04-02T08:36:33.851Z,4.35
2023-04-02T08:39:02.824Z,7.47
2023-04-02T08:41:36.819Z,5.82
2023-04-02T08:44:16.542Z,5.80
2023-04-02T08:46:48.594Z,6.38
2023-04-02T08:49:20.207Z,6.97
2023-04-02T08:51:47.830Z,5.50
2023-04-02T08:54:22.710Z,7.00
2023-04-02T08:56:55.733Z,5.88
2023-04-02T08:59:30.965Z,6.20
2023-04-02T09:02:15.681Z,5.20
2023-04-02T09:04:43.348Z,4.53
2023-04-02T09:07:13.851Z,5.68
2023-04-02T09:09:44.003Z,5.40
2023-04-02T09:12:18.576Z,6.30
2023-04-02T09:14:59.570Z,5.88
2023-04-02T09:17:27.913Z,5.00
2023-04-02T09:19:57.947Z,7.57
2023-04-02T09:22:27.332Z,4.07
2023-04-02T09:24:57.848Z,6.22
2023-04-02T09:27:27.692Z,4.72
2023-04-02T09:30:00.981Z,7.07
2023-04-02T09:32:40.625Z,6.78
2023-04-02T09:35:24.467Z,5.68
2023-04-02T09:38:16.420Z,5.70
2023-04-02T09:40:50.637Z,4.88
2023-04-02T09:43:21.276Z,5.43
2023-04-02T09:45:58.632Z,6.07
2023-04-02T09:48:30.438Z,3.92
2023-04-02T09:51:12.995Z,7.22
2023-04-02T09:53:42.689Z,5.85
2023-04-02T09:56:14.821Z,5.28
2023-04-02T09:58:44.491Z,6.18
2023-04-02T10:01:29.560Z,5.68
2023-04-02T10:03:59.263Z,5.70
2023-04-02T10:06:29.168Z,5.88
2023-04-02T10:08:57.131Z,6.18
2023-04-02T10:11:36.639Z,3.90
2023-04-02T10:14:20.522Z,4.90
2023-04-02T10:16:52.248Z,6.00
2023-04-02T10:19:26.797Z,4.55
2023-04-02T10:21:54.589Z,6.35
2023-04-02T10:24:21.965Z,5.28
2023-04-02T10:26:57.404Z,5.18
2023-04-02T10:29:42.218Z,4.35
2023-04-02T10:32:15.091Z,3.70
2023-04-02T10:34:47.806Z,4.72
2023-04-02T10:37:53.106Z,4.72
2023-04-02T10:40:27.159Z,4.68
2023-04-02T10:43:10.282Z,4.38
2023-04-02T10:45:46.668Z,5.35
2023-04-02T10:48:23.413Z,5.57
2023-04-02T10:50:57.648Z,5.43
2023-04-02T10:53:33.353Z,6.15
2023-04-02T10:56:08.891Z,4.18
2023-04-02T10:58:42.955Z,4.82
2023-04-02T11:01:17.144Z,7.43
2023-04-02T11:03:48.786Z,4.68
2023-04-02T11:06:21.448Z,5.53
2023-04-02T11:11:21.588Z,6.13
2023-04-02T11:13:57.940Z,6.43
2023-04-02T11:16:25.557Z,6.20
2023-04-02T11:19:32.564Z,5.13
2023-04-02T11:22:02.686Z,5.63
2023-04-02T11:24:38.965Z,5.70
2023-04-02T11:27:15.126Z,4.20
2023-04-02T11:29:47.535Z,6.07
2023-04-02T11:32:33.471Z,6.90
2023-04-02T11:35:23.850Z,5.50
2023-04-02T11:37:51.450Z,5.38
2023-04-02T11:40:43.046Z,6.30
2023-04-02T11:43:47.812Z,7.07
2023-04-02T11:46:45.683Z,5.28
2023-04-02T11:49:56.624Z,6.25
2023-04-02T11:52:27.223Z,5.65
2023-04-02T11:55:01.334Z,5.35
2023-04-02T11:57:51.397Z,5.47
2023-04-02T12:00:42.266Z,3.28
2023-04-02T12:03:41.486Z,4.57
2023-04-02T12:06:19.059Z,4.65
2023-04-02T12:08:57.537Z,4.85
2023-04-02T12:11:35.291Z,5.65
2023-04-02T12:14:07.306Z,5.45
2023-04-02T12:16:35.584Z,5.50
2023-04-02T12:19:09.410Z,5.35
2023-04-02T12:21:38.960Z,5.65
2023-04-02T12:24:14.454Z,4.68
2023-04-02T12:26:43.055Z,4.25
2023-04-02T12:29:22.180Z,5.25
2023-04-02T12:31:49.894Z,6.40
2023-04-02T12:34:20.190Z,4.22
2023-04-02T12:36:55.843Z,4.78
2023-04-02T12:39:25.831Z,3.70
2023-04-02T12:41:55.228Z,5.38
2023-04-02T12:44:24.034Z,5.60
2023-04-02T12:46:52.561Z,5.80
2023-04-02T12:49:39.991Z,5.15
2023-04-02T12:52:10.174Z,5.25
2023-04-02T12:54:46.154Z,4.10
2023-04-02T12:57:31.564Z,4.97
2023-04-02T13:02:30.055Z,4.25
2023-04-02T13:05:01.694Z,4.60
2023-04-02T13:07:32.677Z,3.45
2023-04-02T13:10:02.260Z,5.43
2023-04-02T13:12:37.302Z,5.63
2023-04-02T13:15:07.864Z,5.88
2023-04-02T13:17:41.010Z,4.85
2023-04-02T13:20:32.538Z,3.92
2023-04-02T13:23:01.526Z,4.20
2023-04-02T13:25:31.442Z,5.25
2023-04-02T13:27:59.318Z,2.63
2023-04-02T13:30:28.833Z,4.20
2023-04-02T13:32:56.669Z,5.25
2023-04-02T13:35:24.069Z,5.00
2023-04-02T13:37:52.808Z,3.55
2023-04-02T13:40:20.246Z,3.72
2023-04-02T13:42:50.098Z,4.05
2023-04-02T13:45:24.605Z,5.40
2023-04-02T13:47:52.303Z,3.67
2023-04-02T13:50:21.532Z,4.05
2023-04-02T13:52:50.693Z,3.58
2023-04-02T13:55:22.891Z,4.32
2023-04-02T13:57:50.589Z,2.72
2023-04-02T14:00:20.025Z,3.45
2023-04-02T14:02:51.041Z,3.45
2023-04-02T14:05:32.030Z,3.22
2023-04-02T14:08:09.466Z,3.40
2023-04-02T14:11:01.957Z,3.15
2023-04-02T14:13:51.849Z,3.60
2023-04-02T14:16:36.772Z,4.45
2023-04-02T14:19:18.054Z,4.68
2023-04-02T14:22:01.020Z,4.70
2023-04-02T14:24:36.052Z,4.13
2023-04-02T14:27:24.494Z,4.40
2023-04-02T14:29:58.453Z,4.32
2023-04-02T14:32:33.232Z,4.47
2023-04-02T14:35:08.589Z,4.03
2023-04-02T14:37:42.053Z,3.97
2023-04-02T14:40:19.489Z,3.95
2023-04-02T14:42:57.456Z,3.85
2023-04-02T14:45:37.820Z,4.30
2023-04-02T14:48:12.749Z,4.53
2023-04-02T14:50:42.029Z,5.40
2023-04-02T14:53:17.735Z,4.28
2023-04-02T14:55:48.543Z,4.50
2023-04-02T14:58:22.406Z,5.15
2023-04-02T15:00:57.339Z,4.53
2023-04-02T15:03:28.516Z,4.75
2023-04-02T15:06:00.144Z,4.65
2023-04-02T15:08:30.580Z,4.85
2023-04-02T15:11:06.497Z,4.68
2023-04-02T15:13:39.924Z,5.55
2023-04-02T15:16:11.786Z,4.57
2023-04-02T15:18:39.201Z,2.70
2023-04-02T15:21:29.461Z,4.10
2023-04-02T15:24:02.442Z,5.43
2023-04-02T15:26:39.239Z,3.22
2023-04-02T15:29:28.373Z,4.80
2023-04-02T15:32:03.601Z,4.90
2023-04-02T15:34:34.965Z,4.95
2023-04-02T15:37:11.419Z,4.88
2023-04-02T15:39:51.734Z,4.30
2023-04-02T15:42:23.890Z,4.03
2023-04-02T15:45:16.282Z,4.63
2023-04-02T15:47:54.460Z,3.40
2023-04-02T15:50:47.106Z,4.07
2023-04-02T15:53:39.342Z,3.90
2023-04-02T15:56:20.054Z,3.70
2023-04-02T15:58:59.403Z,3.90
2023-04-02T16:01:35.267Z,3.50
2023-04-02T16:04:19.648Z,3.40
2023-04-02T16:07:01.735Z,3.25
2023-04-02T16:09:34.158Z,3.08
2023-04-02T16:12:12.516Z,3.92
2023-04-02T16:14:42.528Z,3.20
2023-04-02T16:17:25.060Z,4.07
2023-04-02T16:19:56.872Z,3.35
2023-04-02T16:22:27.835Z,3.67
2023-04-02T16:25:00.192Z,1.85
2023-04-02T16:30:20.859Z,3.25
2023-04-02T16:33:09.864Z,3.13
2023-04-02T16:35:45.626Z,2.75
2023-04-02T16:38:30.624Z,2.10
2023-04-02T16:41:08.756Z,3.75
2023-04-02T16:43:49.638Z,2.83
2023-04-02T16:46:38.106Z,3.13
2023-04-02T16:49:22.288Z,2.60
2023-04-02T16:51:59.655Z,2.70
2023-04-02T16:54:36.284Z,2.65
2023-04-02T16:57:18.944Z,3.05
2023-04-02T16:59:57.589Z,3.33
2023-04-02T17:02:40.028Z,3.30
2023-04-02T17:05:18.335Z,2.55
2023-04-02T17:07:54.199Z,3.00
2023-04-02T17:10:30.292Z,3.50
2023-04-02T17:13:16.311Z,2.13
2023-04-02T17:15:50.477Z,2.95
2023-04-02T17:18:20.230Z,3.15
2023-04-02T17:20:49.253Z,3.42
2023-04-02T17:23:19.041Z,3.38
2023-04-02T17:25:50.907Z,4.28
2023-04-02T17:28:25.630Z,2.95
2023-04-02T17:30:56.293Z,2.40
2023-04-02T17:33:27.004Z,2.80
2023-04-02T17:36:12.127Z,2.80
2023-04-02T17:38:49.590Z,1.83
2023-04-02T17:41:21.383Z,2.55
2023-04-02T17:43:56.063Z,2.17
2023-04-02T17:46:34.572Z,3.10
2023-04-02T17:49:13.312Z,2.35
2023-04-02T17:51:49.203Z,2.58
2023-04-02T17:54:31.240Z,2.60
2023-04-02T17:57:24.205Z,2.30
2023-04-02T18:00:10.825Z,2.60
2023-04-02T18:03:08.201Z,2.67
2023-04-02T18:05:42.906Z,2.15
2023-04-02T18:08:22.742Z,2.70
2023-04-02T18:11:04.624Z,2.80
2023-04-02T18:13:35.830Z,1.92
2023-04-02T18:16:23.670Z,3.28
2023-04-02T18:19:06.119Z,2.97
2023-04-02T18:21:43.235Z,3.28
2023-04-02T18:24:33.592Z,2.75
2023-04-02T18:27:16.096Z,2.55
2023-04-02T18:29:51.366Z,2.80
2023-04-02T18:32:47.208Z,2.38
2023-04-02T18:35:23.310Z,2.50
2023-04-02T18:38:11.732Z,2.95
2023-04-02T18:40:43.917Z,2.92
2023-04-02T18:43:26.342Z,2.72
2023-04-02T18:46:00.358Z,2.53
2023-04-02T18:48:39.354Z,3.35
2023-04-02T18:53:37.427Z,1.70
2023-04-02T18:56:12.058Z,2.83
2023-04-02T18:58:46.922Z,2.55
2023-04-02T19:01:18.548Z,3.05
2023-04-02T19:03:51.311Z,2.97
2023-04-02T19:06:22.311Z,2.80
2023-04-02T19:08:55.043Z,3.22
2023-04-02T19:11:31.528Z,3.35
2023-04-02T19:14:01.384Z,2.67
2023-04-02T19:16:45.730Z,2.40
2023-04-02T19:19:19.076Z,2.80
2023-04-02T19:22:01.668Z,3.45
2023-04-02T19:24:40.114Z,2.53
2023-04-02T19:27:18.832Z,2.83
2023-04-02T19:29:59.925Z,2.80
2023-04-02T19:32:38.400Z,2.78
2023-04-02T19:35:17.568Z,2.95
2023-04-02T19:37:55.053Z,3.15
2023-04-02T19:40:32.310Z,2.20
2023-04-02T19:43:01.232Z,3.08
2023-04-02T19:45:32.881Z,2.15
2023-04-02T19:48:03.677Z,1.83
2023-04-02T19:50:31.103Z,2.58
2023-04-02T19:52:58.465Z,2.17
2023-04-02T19:55:27.044Z,2.25
2023-04-02T19:58:08.405Z,2.63
2023-04-02T20:00:41.850Z,3.05
2023-04-02T20:03:09.456Z,3.33
2023-04-02T20:05:37.092Z,2.50
2023-04-02T20:08:04.867Z,2.90
2023-04-02T20:10:32.206Z,2.33
2023-04-02T20:13:01.162Z,2.45
2023-04-02T20:15:28.434Z,2.45
2023-04-02T20:17:57.145Z,2.72
2023-04-02T20:20:25.006Z,2.47
2023-04-02T20:22:52.355Z,3.08
2023-04-02T20:25:19.553Z,2.75
2023-04-02T20:27:46.841Z,3.17
2023-04-02T20:30:14.634Z,2.63
2023-04-02T20:32:42.314Z,2.78
2023-04-02T20:35:11.287Z,3.83
2023-04-02T20:37:41.038Z,1.77
2023-04-02T20:40:10.217Z,3.17
2023-04-02T20:42:37.507Z,3.08
2023-04-02T20:45:06.374Z,2.70
2023-04-02T20:47:34.113Z,2.33
2023-04-02T20:50:01.679Z,1.63
2023-04-02T20:52:33.127Z,3.03
2023-04-02T20:55:01.601Z,2.40
2023-04-02T21:00:06.316Z,3.08
2023-04-02T21:02:33.746Z,3.00
2023-04-02T21:05:01.373Z,3.47
2023-04-02T21:07:28.785Z,2.67
2023-04-02T21:09:56.558Z,3.63
2023-04-02T21:12:25.143Z,3.00
2023-04-02T21:14:58.779Z,2.70
2023-04-02T21:17:27.358Z,2.53
2023-04-02T21:19:55.041Z,2.83
2023-04-02T21:22:22.770Z,2.95
2023-04-02T21:24:50.069Z,2.65
2023-04-02T21:27:17.470Z,2.70
2023-04-02T21:29:44.792Z,2.78
2023-04-02T21:32:21.271Z,3.55
2023-04-02T21:34:49.348Z,2.50
2023-04-02T21:37:16.560Z,3.00
2023-04-02T21:39:43.842Z,2.10
2023-04-02T21:42:11.481Z,1.80
2023-04-02T21:44:38.769Z,2.22
2023-04-02T21:47:06.291Z,2.80
2023-04-02T21:49:35.397Z,2.95
2023-04-02T21:52:02.685Z,2.00
2023-04-02T21:54:30.612Z,3.03
2023-04-02T21:56:58.078Z,3.20
2023-04-02T21:59:25.663Z,2.65
2023-04-02T22:01:54.470Z,1.88
2023-04-02T22:04:23.773Z,2.88
2023-04-02T22:06:53.035Z,2.63
2023-04-02T22:09:23.218Z,2.83
2023-04-02T22:11:54.560Z,3.17
2023-04-02T22:14:22.463Z,2.13
2023-04-02T22:16:49.909Z,2.67
2023-04-02T22:19:17.602Z,3.20
2023-04-02T22:21:46.086Z,3.03
2023-04-02T22:24:18.775Z,2.70
2023-04-02T22:26:46.412Z,3.40
2023-04-02T22:29:14.493Z,2.55
2023-04-02T22:31:42.107Z,2.95
2023-04-02T22:34:09.782Z,3.58
2023-04-02T22:36:37.291Z,2.65
2023-04-02T22:39:07.129Z,2.70
2023-04-02T22:41:36.348Z,3.38
2023-04-02T22:44:03.774Z,2.38
2023-04-02T22:46:31.748Z,2.90
2023-04-02T22:48:59.382Z,2.22
2023-04-02T22:51:28.028Z,2.70
2023-04-02T22:53:56.632Z,2.60
2023-04-02T22:56:28.873Z,2.72
2023-04-02T22:58:57.814Z,2.20
2023-04-02T23:01:29.058Z,2.78
2023-04-02T23:03:56.472Z,2.40
2023-04-02T23:06:26.562Z,2.45
2023-04-02T23:08:54.044Z,2.55
2023-04-02T23:11:22.702Z,3.17
2023-04-02T23:13:52.703Z,2.33
2023-04-02T23:16:22.835Z,2.50
2023-04-02T23:18:51.023Z,2.63
2023-04-02T23:21:19.788Z,2.67
2023-04-02T23:23:48.367Z,1.80
2023-04-02T23:26:19.599Z,2.72
2023-04-02T23:28:47.538Z,2.45
2023-04-02T23:31:16.951Z,2.28
2023-04-02T23:33:46.042Z,1.83
2023-04-02T23:36:22.734Z,2.05
2023-04-02T23:38:55.245Z,2.78
2023-04-02T23:41:24.266Z,1.70
2023-04-02T23:43:51.837Z,2.50
2023-04-02T23:46:19.531Z,2.95
2023-04-02T23:48:50.607Z,3.13
2023-04-02T23:51:18.834Z,2.83
2023-04-02T23:53:46.237Z,3.65
2023-04-02T23:56:13.702Z,2.35
2023-04-02T23:58:41.109Z,3.10
